createdAt,value
2022-08-02T00:00:40.745Z,24.24
2022-08-02T00:03:11.308Z,24.22
2022-08-02T00:05:40.231Z,24.16
2022-08-02T00:08:08.865Z,24.23
2022-08-02T00:10:37.486Z,24.07
2022-08-02T00:13:05.441Z,24.09
2022-08-02T00:15:33.490Z,24.00
2022-08-02T00:18:01.523Z,23.95
2022-08-02T00:20:29.507Z,24.00
2022-08-02T00:22:57.640Z,24.00
2022-08-02T00:25:29.118Z,23.92
2022-08-02T00:27:57.204Z,23.99
2022-08-02T00:30:26.582Z,24.08
2022-08-02T00:32:54.487Z,24.04
2022-08-02T00:35:22.815Z,23.99
2022-08-02T00:37:51.088Z,24.15
2022-08-02T00:40:23.494Z,24.02
2022-08-02T00:43:08.338Z,23.95
2022-08-02T00:46:02.456Z,23.96
2022-08-02T00:48:27.035Z,24.05
2022-08-02T00:50:56.630Z,24.05
2022-08-02T00:53:24.650Z,23.97
2022-08-02T00:55:52.770Z,23.70
2022-08-02T00:58:20.864Z,23.69
2022-08-02T01:00:49.240Z,23.80
2022-08-02T01:03:17.591Z,23.71
2022-08-02T01:06:10.318Z,23.75
2022-08-02T01:08:33.822Z,23.73
2022-08-02T01:11:01.819Z,23.67
2022-08-02T01:13:29.902Z,23.61
2022-08-02T01:16:20.224Z,23.76
2022-08-02T01:18:53.480Z,23.62
2022-08-02T01:22:03.930Z,23.65
2022-08-02T01:25:16.360Z,23.57
2022-08-02T01:28:05.481Z,23.50
2022-08-02T01:30:35.295Z,23.60
2022-08-02T01:33:05.912Z,23.60
2022-08-02T01:35:51.123Z,23.60
2022-08-02T01:38:37.834Z,23.61
2022-08-02T01:41:09.928Z,23.61
2022-08-02T01:43:42.387Z,23.53
2022-08-02T01:46:13.981Z,23.65
2022-08-02T01:48:45.192Z,23.69
2022-08-02T01:51:17.026Z,23.63
2022-08-02T01:53:50.089Z,23.59
2022-08-02T01:56:20.097Z,23.59
2022-08-02T01:58:51.984Z,23.40
2022-08-02T02:01:22.499Z,23.55
2022-08-02T02:03:51.143Z,23.61
2022-08-02T02:06:20.838Z,23.55
2022-08-02T02:08:50.694Z,23.51
2022-08-02T02:12:08.695Z,23.46
2022-08-02T02:14:08.514Z,23.42
2022-08-02T02:16:37.898Z,23.35
2022-08-02T02:19:07.804Z,23.35
2022-08-02T02:21:37.049Z,23.28
2022-08-02T02:24:09.119Z,23.28
2022-08-02T02:26:51.975Z,23.17
2022-08-02T02:29:25.167Z,23.15
2022-08-02T02:31:55.701Z,23.14
2022-08-02T02:34:38.583Z,23.21
2022-08-02T02:37:12.631Z,23.24
2022-08-02T02:39:43.289Z,23.21
2022-08-02T02:42:15.191Z,23.10
2022-08-02T02:44:44.892Z,22.98
2022-08-02T02:47:15.412Z,22.91
2022-08-02T02:49:46.336Z,22.92
2022-08-02T02:52:16.723Z,23.07
2022-08-02T02:54:48.772Z,23.03
2022-08-02T02:57:17.642Z,22.92
2022-08-02T02:59:49.682Z,22.95
2022-08-02T03:02:19.720Z,23.04
2022-08-02T03:04:56.959Z,22.80
2022-08-02T03:07:26.995Z,22.64
2022-08-02T03:09:55.538Z,22.77
2022-08-02T03:12:30.990Z,22.80
2022-08-02T03:15:13.169Z,22.61
2022-08-02T03:17:43.399Z,22.63
2022-08-02T03:20:15.293Z,22.56
2022-08-02T03:22:45.398Z,22.74
2022-08-02T03:25:14.916Z,22.49
2022-08-02T03:27:43.002Z,22.70
2022-08-02T03:30:13.212Z,22.59
2022-08-02T03:32:44.073Z,22.59
2022-08-02T03:35:18.588Z,22.66
2022-08-02T03:37:54.341Z,22.55
2022-08-02T03:40:23.821Z,22.55
2022-08-02T03:42:52.425Z,22.41
2022-08-02T03:45:21.051Z,22.37
2022-08-02T03:47:50.490Z,22.23
2022-08-02T03:50:20.144Z,22.26
2022-08-02T03:52:48.743Z,22.40
2022-08-02T03:55:17.101Z,22.40
2022-08-02T03:57:45.373Z,22.47
2022-08-02T04:00:19.229Z,22.42
2022-08-02T04:02:48.334Z,22.38
2022-08-02T04:05:17.912Z,22.16
2022-08-02T04:08:03.580Z,22.10
2022-08-02T04:10:57.877Z,22.24
2022-08-02T04:13:35.670Z,22.35
2022-08-02T04:16:19.173Z,22.47
2022-08-02T04:18:55.719Z,22.57
2022-08-02T04:21:50.077Z,22.73
2022-08-02T04:24:25.274Z,22.85
2022-08-02T04:26:57.878Z,23.06
2022-08-02T04:29:36.702Z,23.23
2022-08-02T04:32:05.710Z,23.32
2022-08-02T04:34:33.816Z,23.35
2022-08-02T04:37:02.426Z,23.29
2022-08-02T04:39:30.717Z,23.22
2022-08-02T04:42:44.594Z,23.15
2022-08-02T04:46:16.624Z,23.12
2022-08-02T04:49:05.021Z,23.42
2022-08-02T04:52:01.713Z,22.99
2022-08-02T04:54:51.283Z,22.86
2022-08-02T04:57:53.024Z,22.99
2022-08-02T05:00:48.771Z,22.98
2022-08-02T05:03:36.692Z,23.04
2022-08-02T05:06:19.125Z,23.19
2022-08-02T05:09:01.559Z,23.13
2022-08-02T05:11:55.030Z,23.14
2022-08-02T05:14:53.333Z,22.96
2022-08-02T05:17:47.845Z,23.14
2022-08-02T05:20:39.332Z,23.23
2022-08-02T05:23:32.964Z,23.25
2022-08-02T05:26:17.666Z,22.90
2022-08-02T05:29:06.971Z,22.73
2022-08-02T05:31:48.226Z,22.86
2022-08-02T05:34:29.187Z,22.91
2022-08-02T05:37:08.995Z,22.85
2022-08-02T05:39:56.438Z,22.71
2022-08-02T05:42:48.357Z,22.66
2022-08-02T05:45:29.935Z,22.89
2022-08-02T05:48:14.551Z,22.89
2022-08-02T05:51:01.213Z,23.10
2022-08-02T05:54:19.746Z,23.00
2022-08-02T05:57:43.212Z,23.07
2022-08-02T06:00:49.068Z,22.81
2022-08-02T06:03:37.636Z,23.02
2022-08-02T06:06:27.839Z,23.13
2022-08-02T06:09:27.299Z,23.13
2022-08-02T06:12:17.144Z,23.13
2022-08-02T06:15:05.810Z,23.29
2022-08-02T06:17:51.885Z,23.33
2022-08-02T06:20:35.855Z,23.20
2022-08-02T06:23:31.561Z,23.24
2022-08-02T06:26:09.088Z,23.56
2022-08-02T06:28:49.543Z,23.66
2022-08-02T06:31:39.665Z,23.60
2022-08-02T06:34:49.237Z,23.59
2022-08-02T06:38:24.950Z,23.57
2022-08-02T06:41:07.585Z,23.86
2022-08-02T06:47:39.984Z,24.17
2022-08-02T06:50:29.640Z,24.46
2022-08-02T06:53:08.055Z,24.34
2022-08-02T06:55:53.431Z,23.90
2022-08-02T06:58:46.599Z,24.07
2022-08-02T07:01:38.823Z,24.23
2022-08-02T07:04:34.945Z,24.21
2022-08-02T07:07:11.245Z,24.35
2022-08-02T07:09:56.998Z,24.45
2022-08-02T07:12:44.009Z,24.58
2022-08-02T07:16:04.003Z,24.74
2022-08-02T07:19:03.723Z,25.03
2022-08-02T07:21:57.869Z,24.82
2022-08-02T07:24:55.848Z,25.60
2022-08-02T07:27:42.150Z,26.63
2022-08-02T07:30:45.363Z,27.07
2022-08-02T07:33:39.035Z,27.86
2022-08-02T07:36:22.789Z,28.57
2022-08-02T07:39:39.284Z,27.76
2022-08-02T07:42:41.988Z,27.98
2022-08-02T07:45:57.130Z,28.03
2022-08-02T07:49:20.111Z,27.68
2022-08-02T07:52:57.262Z,28.58
2022-08-02T07:56:31.860Z,28.69
2022-08-02T07:59:28.410Z,28.65
2022-08-02T08:02:29.277Z,28.36
2022-08-02T08:05:29.384Z,28.18
2022-08-02T08:08:31.154Z,27.87
2022-08-02T08:11:41.282Z,28.27
2022-08-02T08:15:20.707Z,28.31
2022-08-02T08:19:00.399Z,28.12
2022-08-02T08:22:19.996Z,28.54
2022-08-02T08:25:16.594Z,28.54
2022-08-02T08:28:52.888Z,28.95
2022-08-02T08:32:25.220Z,29.88
2022-08-02T08:35:07.528Z,29.29
2022-08-02T08:38:18.586Z,29.05
2022-08-02T08:41:18.313Z,28.96
2022-08-02T08:44:42.224Z,29.04
2022-08-02T08:48:30.614Z,28.71
2022-08-02T08:52:11.716Z,28.65
2022-08-02T08:55:34.719Z,29.65
2022-08-02T08:58:49.212Z,29.83
2022-08-02T09:02:33.620Z,29.59
2022-08-02T09:06:07.038Z,29.67
2022-08-02T09:08:50.548Z,29.82
2022-08-02T09:12:09.017Z,30.06
2022-08-02T09:15:07.507Z,30.14
2022-08-02T09:18:56.901Z,30.21
2022-08-02T09:22:05.003Z,29.23
2022-08-02T09:25:23.163Z,29.67
2022-08-02T09:29:01.709Z,30.61
2022-08-02T09:32:21.082Z,30.27
2022-08-02T09:36:06.665Z,30.27
2022-08-02T09:39:33.956Z,29.85
2022-08-02T09:42:22.438Z,29.35
2022-08-02T09:45:50.732Z,30.39
2022-08-02T09:49:35.641Z,30.19
2022-08-02T09:53:10.479Z,30.20
2022-08-02T09:56:34.314Z,31.27
2022-08-02T10:00:43.365Z,31.03
2022-08-02T10:05:01.756Z,31.42
2022-08-02T10:07:54.311Z,31.85
2022-08-02T10:10:45.365Z,32.46
2022-08-02T10:13:47.879Z,31.89
2022-08-02T10:21:12.243Z,31.09
2022-08-02T10:24:51.405Z,32.30
2022-08-02T10:28:07.810Z,32.49
2022-08-02T10:31:36.795Z,32.17
2022-08-02T10:39:56.876Z,33.28
2022-08-02T10:43:32.571Z,33.88
2022-08-02T10:47:12.457Z,34.95
2022-08-02T10:51:02.925Z,34.30
2022-08-02T10:54:44.200Z,34.34
2022-08-02T10:58:10.709Z,33.82
2022-08-02T11:01:38.978Z,33.62
2022-08-02T11:04:56.867Z,32.49
2022-08-02T11:09:00.985Z,32.16
2022-08-02T11:13:22.223Z,33.61
2022-08-02T11:16:23.876Z,33.70
2022-08-02T11:20:13.469Z,33.07
2022-08-02T11:23:48.313Z,32.79
2022-08-02T11:27:36.499Z,35.08
2022-08-02T11:31:25.490Z,33.79
2022-08-02T11:35:07.837Z,33.46
2022-08-02T11:37:47.353Z,33.92
2022-08-02T11:41:11.412Z,33.40
2022-08-02T11:44:26.739Z,32.49
2022-08-02T11:47:14.282Z,32.20
2022-08-02T11:50:48.079Z,32.06
2022-08-02T11:53:27.743Z,32.55
2022-08-02T11:56:25.263Z,33.40
2022-08-02T11:59:45.062Z,34.00
2022-08-02T12:02:56.877Z,32.97
2022-08-02T12:06:42.694Z,33.64
2022-08-02T12:10:20.738Z,35.43
2022-08-02T12:14:22.467Z,35.49
2022-08-02T12:18:22.614Z,35.07
2022-08-02T12:21:30.362Z,34.52
2022-08-02T12:24:54.905Z,34.19
2022-08-02T12:28:23.144Z,33.78
2022-08-02T12:32:04.496Z,34.20
2022-08-02T12:35:42.967Z,34.76
2022-08-02T12:38:46.327Z,35.61
2022-08-02T12:42:14.015Z,36.52
2022-08-02T12:45:07.991Z,36.26
2022-08-02T12:48:38.048Z,35.79
2022-08-02T12:51:56.440Z,36.58
2022-08-02T12:56:01.426Z,36.44
2022-08-02T12:59:27.840Z,36.14
2022-08-02T13:04:07.294Z,36.39
2022-08-02T13:07:11.021Z,37.00
2022-08-02T13:10:02.501Z,38.19
2022-08-02T13:13:37.940Z,38.65
2022-08-02T13:16:33.227Z,39.21
2022-08-02T13:20:15.129Z,39.14
2022-08-02T13:23:57.670Z,38.51
2022-08-02T13:26:56.105Z,38.70
2022-08-02T13:29:50.244Z,38.87
2022-08-02T13:33:30.786Z,39.16
2022-08-02T13:37:10.606Z,37.68
2022-08-02T13:40:21.211Z,37.89
2022-08-02T13:43:53.433Z,38.02
2022-08-02T13:46:58.726Z,37.29
2022-08-02T13:49:50.821Z,37.36
2022-08-02T13:53:27.310Z,35.89
2022-08-02T13:56:06.629Z,37.74
2022-08-02T13:59:01.096Z,37.69
2022-08-02T14:02:23.202Z,37.61
2022-08-02T14:05:38.614Z,37.36
2022-08-02T14:08:43.798Z,37.95
2022-08-02T14:12:05.818Z,38.07
2022-08-02T14:15:49.263Z,38.30
2022-08-02T14:19:02.875Z,37.73
2022-08-02T14:22:12.890Z,37.84
2022-08-02T14:26:02.529Z,37.56
2022-08-02T14:29:05.134Z,36.70
2022-08-02T14:32:17.505Z,36.81
2022-08-02T14:36:00.158Z,37.27
2022-08-02T14:39:02.143Z,37.28
2022-08-02T14:42:17.302Z,38.07
2022-08-02T14:45:13.074Z,38.66
2022-08-02T14:48:05.925Z,38.26
2022-08-02T14:50:55.740Z,38.54
2022-08-02T14:54:36.054Z,39.08
2022-08-02T14:58:07.926Z,39.42
2022-08-02T15:01:57.290Z,39.03
2022-08-02T15:05:51.150Z,38.25
2022-08-02T15:13:53.649Z,37.53
2022-08-02T15:18:07.201Z,36.86
2022-08-02T15:21:54.727Z,37.27
2022-08-02T15:25:47.112Z,36.58
2022-08-02T15:29:36.319Z,37.09
2022-08-02T15:33:27.957Z,38.08
2022-08-02T15:36:43.045Z,38.84
2022-08-02T15:40:32.662Z,39.11
2022-08-02T15:44:20.616Z,38.94
2022-08-02T15:57:23.207Z,38.61
2022-08-02T16:00:31.470Z,38.69
2022-08-02T16:03:58.888Z,38.22
2022-08-02T16:07:11.771Z,38.49
2022-08-02T16:10:15.168Z,38.22
2022-08-02T16:13:31.071Z,38.37
2022-08-02T16:16:24.999Z,38.82
2022-08-02T16:18:55.285Z,38.99
2022-08-02T16:21:24.051Z,38.92
2022-08-02T16:24:01.539Z,38.60
2022-08-02T16:26:34.329Z,38.29
2022-08-02T16:29:03.511Z,38.70
2022-08-02T16:31:42.642Z,38.87
2022-08-02T16:34:12.702Z,38.03
2022-08-02T16:37:03.615Z,38.07
2022-08-02T16:39:54.405Z,37.90
2022-08-02T16:42:25.646Z,36.87
2022-08-02T16:44:56.813Z,35.95
2022-08-02T16:47:43.298Z,36.23
2022-08-02T16:50:16.854Z,35.99
2022-08-02T16:52:57.756Z,36.09
2022-08-02T16:55:25.874Z,36.37
2022-08-02T16:58:22.635Z,36.53
2022-08-02T17:01:03.436Z,36.66
2022-08-02T17:03:56.985Z,36.46
2022-08-02T17:06:26.051Z,36.05
2022-08-02T17:08:58.220Z,35.73
2022-08-02T17:11:41.452Z,35.58
2022-08-02T17:14:13.010Z,35.88
2022-08-02T17:16:40.848Z,35.99
2022-08-02T17:19:15.625Z,35.59
2022-08-02T17:21:57.573Z,35.43
2022-08-02T17:24:39.859Z,35.33
2022-08-02T17:27:30.610Z,34.95
2022-08-02T17:30:04.269Z,34.66
2022-08-02T17:33:20.932Z,34.47
2022-08-02T17:36:08.333Z,34.21
2022-08-02T17:39:07.576Z,33.96
2022-08-02T17:42:40.516Z,33.87
2022-08-02T17:46:21.458Z,33.34
2022-08-02T17:49:52.570Z,33.04
2022-08-02T17:53:23.089Z,32.63
2022-08-02T17:57:11.207Z,32.21
2022-08-02T18:00:04.378Z,32.04
2022-08-02T18:02:52.766Z,31.73
2022-08-02T18:05:39.701Z,31.47
2022-08-02T18:08:43.145Z,31.26
2022-08-02T18:12:04.842Z,30.71
2022-08-02T18:15:15.572Z,30.19
2022-08-02T18:17:46.461Z,29.96
2022-08-02T18:20:14.240Z,29.76
2022-08-02T18:22:43.098Z,29.38
2022-08-02T18:25:11.737Z,29.18
2022-08-02T18:27:58.970Z,28.99
2022-08-02T18:30:28.469Z,28.74
2022-08-02T18:33:58.147Z,28.43
2022-08-02T18:35:43.208Z,28.08
2022-08-02T18:38:11.591Z,27.89
2022-08-02T18:40:51.553Z,27.60
2022-08-02T18:43:23.693Z,27.25
2022-08-02T18:46:05.687Z,27.00
2022-08-02T18:48:50.558Z,26.77
2022-08-02T18:51:22.525Z,26.50
2022-08-02T18:54:12.108Z,26.30
2022-08-02T18:56:51.433Z,26.29
2022-08-02T18:59:51.423Z,26.20
2022-08-02T19:02:20.693Z,25.87
2022-08-02T19:05:53.556Z,25.78
2022-08-02T19:08:36.687Z,25.63
2022-08-02T19:11:12.491Z,25.50
2022-08-02T19:13:43.339Z,25.34
2022-08-02T19:16:13.973Z,25.18
2022-08-02T19:18:42.926Z,25.02
2022-08-02T19:21:10.504Z,24.91
2022-08-02T19:23:37.818Z,24.63
2022-08-02T19:26:22.472Z,24.32
2022-08-02T19:28:57.830Z,24.06
2022-08-02T19:31:34.685Z,23.94
2022-08-02T19:34:21.267Z,23.91
2022-08-02T19:37:13.247Z,23.95
2022-08-02T19:39:56.778Z,23.96
2022-08-02T19:42:29.463Z,24.00
2022-08-02T19:45:02.274Z,23.85
2022-08-02T19:47:38.511Z,23.74
2022-08-02T19:50:14.737Z,23.66
2022-08-02T19:52:46.901Z,23.62
2022-08-02T19:55:59.803Z,23.45
2022-08-02T19:58:09.753Z,23.26
2022-08-02T20:00:42.498Z,23.15
2022-08-02T20:03:15.904Z,23.06
2022-08-02T20:05:43.270Z,22.93
2022-08-02T20:08:31.552Z,22.83
2022-08-02T20:11:04.310Z,22.82
2022-08-02T20:13:47.280Z,22.91
2022-08-02T20:16:27.996Z,22.98
2022-08-02T20:19:14.184Z,23.00
2022-08-02T20:21:48.330Z,22.97
2022-08-02T20:24:22.497Z,22.92
2022-08-02T20:26:54.069Z,22.83
2022-08-02T20:29:42.797Z,22.84
2022-08-02T20:32:08.598Z,22.67
2022-08-02T20:34:36.223Z,22.62
2022-08-02T20:37:56.072Z,22.54
2022-08-02T20:39:51.759Z,22.42
2022-08-02T20:42:23.817Z,22.34
2022-08-02T20:44:55.835Z,22.32
2022-08-02T20:47:27.562Z,22.35
2022-08-02T20:50:17.075Z,22.33
2022-08-02T20:52:44.237Z,22.20
2022-08-02T20:55:17.178Z,22.10
2022-08-02T20:58:00.020Z,22.02
2022-08-02T21:00:30.413Z,22.00
2022-08-02T21:03:02.646Z,21.97
2022-08-02T21:05:54.518Z,21.92
2022-08-02T21:08:19.976Z,21.90
2022-08-02T21:10:52.374Z,21.82
2022-08-02T21:16:27.224Z,21.89
2022-08-02T21:18:55.329Z,21.83
2022-08-02T21:21:22.074Z,21.75
2022-08-02T21:23:54.818Z,21.79
2022-08-02T21:26:27.991Z,21.76
2022-08-02T21:28:55.813Z,21.82
2022-08-02T21:31:22.398Z,21.82
2022-08-02T21:33:58.529Z,21.82
2022-08-02T21:36:30.674Z,21.76
2022-08-02T21:39:09.242Z,21.69
2022-08-02T21:41:46.576Z,21.60
2022-08-02T21:44:16.224Z,21.53
2022-08-02T21:46:45.241Z,21.47
2022-08-02T21:49:13.645Z,21.39
2022-08-02T21:51:42.845Z,21.35
2022-08-02T21:54:17.628Z,21.34
2022-08-02T21:56:55.592Z,21.31
2022-08-02T21:59:25.977Z,21.27
2022-08-02T22:01:56.837Z,21.24
2022-08-02T22:04:27.653Z,21.26
2022-08-02T22:06:55.306Z,21.27
2022-08-02T22:09:42.351Z,21.28
2022-08-02T22:12:16.699Z,21.22
2022-08-02T22:14:54.944Z,21.12
2022-08-02T22:17:49.964Z,21.09
2022-08-02T22:20:18.238Z,20.96
2022-08-02T22:22:52.482Z,20.96
2022-08-02T22:25:27.252Z,20.95
2022-08-02T22:28:39.412Z,20.90
2022-08-02T22:30:56.964Z,20.89
2022-08-02T22:33:47.151Z,20.86
2022-08-02T22:36:35.923Z,20.84
2022-08-02T22:42:06.462Z,20.81
2022-08-02T22:44:34.667Z,20.77
2022-08-02T22:47:03.965Z,20.75
2022-08-02T22:49:38.538Z,20.72
2022-08-02T22:52:21.401Z,20.72
2022-08-02T22:54:48.197Z,20.69
2022-08-02T22:57:15.036Z,20.68
2022-08-02T22:59:09.600Z,20.84
2022-08-02T22:59:41.985Z,20.67
2022-08-02T23:02:09.781Z,20.65
2022-08-02T23:04:36.814Z,20.63
2022-08-02T23:07:04.100Z,20.57
2022-08-02T23:09:30.725Z,20.57
2022-08-02T23:11:57.575Z,20.55
2022-08-02T23:14:24.220Z,20.55
2022-08-02T23:17:09.331Z,20.58
2022-08-02T23:19:50.991Z,20.58
2022-08-02T23:22:21.206Z,20.56
2022-08-02T23:24:55.020Z,20.57
2022-08-02T23:27:21.866Z,20.55
2022-08-02T23:29:48.457Z,20.48
2022-08-02T23:32:15.255Z,20.44
2022-08-02T23:34:42.516Z,20.42
2022-08-02T23:37:09.380Z,20.36
2022-08-02T23:39:36.186Z,20.39
2022-08-02T23:42:03.826Z,20.34
2022-08-02T23:44:30.570Z,20.32
2022-08-02T23:46:57.238Z,20.29
2022-08-02T23:49:24.151Z,20.26
2022-08-02T23:51:51.621Z,20.17
2022-08-02T23:54:19.284Z,20.16
2022-08-02T23:56:46.206Z,20.19
2022-08-02T23:59:15.301Z,20.09
